createdAt,value
2023-05-10T00:08:09.041Z,20.53
2023-05-10T00:18:10.380Z,20.54
2023-05-10T00:28:11.619Z,20.51
2023-05-10T00:38:12.891Z,20.42
2023-05-10T00:48:14.139Z,20.47
2023-05-10T00:58:15.398Z,20.43
2023-05-10T01:08:16.649Z,20.57
2023-05-10T01:18:17.906Z,20.48
2023-05-10T01:28:19.191Z,20.44
2023-05-10T01:38:20.455Z,20.45
2023-05-10T01:48:21.700Z,20.48
2023-05-10T01:58:22.981Z,20.58
2023-05-10T02:08:24.229Z,20.53
2023-05-10T02:18:25.442Z,20.66
2023-05-10T02:28:26.701Z,20.55
2023-05-10T02:38:27.952Z,20.59
2023-05-10T02:48:29.195Z,20.57
2023-05-10T02:58:30.433Z,20.55
2023-05-10T03:08:31.669Z,20.53
2023-05-10T03:18:32.905Z,20.50
2023-05-10T03:28:34.170Z,20.50
2023-05-10T03:38:35.426Z,20.47
2023-05-10T03:48:36.706Z,20.54
2023-05-10T03:58:37.970Z,20.52
2023-05-10T04:08:39.244Z,20.64
2023-05-10T04:18:40.491Z,20.60
2023-05-10T04:28:41.704Z,20.61
2023-05-10T04:38:42.950Z,20.60
2023-05-10T04:48:44.216Z,20.55
2023-05-10T04:58:48.173Z,20.49
2023-05-10T05:08:49.425Z,20.59
2023-05-10T05:18:50.683Z,20.51
2023-05-10T05:28:51.932Z,20.52
2023-05-10T05:38:53.159Z,20.56
2023-05-10T05:48:54.419Z,20.52
2023-05-10T05:58:55.679Z,20.41
2023-05-10T06:08:56.927Z,20.56
2023-05-10T06:18:58.183Z,20.59
2023-05-10T06:28:59.421Z,20.68
2023-05-10T06:39:00.636Z,20.55
2023-05-10T06:49:01.870Z,20.62
2023-05-10T06:59:03.145Z,20.58
2023-05-10T07:09:04.368Z,20.59
2023-05-10T07:19:05.587Z,20.52
2023-05-10T07:29:06.893Z,20.44
2023-05-10T07:39:08.141Z,20.47
2023-05-10T07:49:09.381Z,20.52
2023-05-10T07:59:12.572Z,20.52
2023-05-10T08:09:14.101Z,20.61
2023-05-10T08:19:15.337Z,20.66
2023-05-10T08:29:16.589Z,20.62
2023-05-10T08:39:29.315Z,20.66
2023-05-10T08:49:31.803Z,20.75
2023-05-10T08:59:33.035Z,20.80
2023-05-10T09:09:34.261Z,20.83
2023-05-10T09:19:35.506Z,20.85
2023-05-10T09:29:36.761Z,20.85
2023-05-10T09:39:38.058Z,20.95
2023-05-10T09:49:39.333Z,20.91
2023-05-10T09:59:40.582Z,20.90
2023-05-10T10:09:41.855Z,20.90
2023-05-10T10:19:43.107Z,20.91
2023-05-10T10:29:44.325Z,20.87
2023-05-10T10:39:47.061Z,20.90
2023-05-10T10:49:48.310Z,20.90
2023-05-10T10:59:49.560Z,20.88
2023-05-10T11:09:50.849Z,20.92
2023-05-10T11:19:52.194Z,20.92
2023-05-10T11:29:53.474Z,20.93
2023-05-10T11:39:54.685Z,20.90
2023-05-10T11:49:55.935Z,20.90
2023-05-10T11:59:57.154Z,20.92
2023-05-10T12:09:58.544Z,20.88
2023-05-10T12:19:59.790Z,20.82
2023-05-10T12:30:01.069Z,20.82
2023-05-10T12:40:02.356Z,20.83
2023-05-10T12:50:03.731Z,20.84
2023-05-10T13:00:04.971Z,20.83
2023-05-10T13:10:06.189Z,20.88
2023-05-10T13:20:07.422Z,20.87
2023-05-10T13:30:08.735Z,20.86
2023-05-10T13:40:10.029Z,20.85
2023-05-10T13:50:11.314Z,20.86
2023-05-10T14:00:12.579Z,20.75
2023-05-10T14:10:13.831Z,20.76
2023-05-10T14:20:16.392Z,20.73
2023-05-10T14:30:17.630Z,20.72
2023-05-10T14:40:18.865Z,20.76
2023-05-10T14:50:35.127Z,20.70
2023-05-10T15:00:37.582Z,20.75
2023-05-10T15:10:39.128Z,20.72
2023-05-10T15:20:40.378Z,20.73
2023-05-10T15:30:41.665Z,20.70
2023-05-10T15:40:42.896Z,20.69
2023-05-10T15:50:44.129Z,20.67
2023-05-10T16:00:45.411Z,20.64
2023-05-10T16:10:46.989Z,20.60
2023-05-10T16:20:48.479Z,20.56
2023-05-10T16:30:49.788Z,20.54
2023-05-10T16:40:51.094Z,20.48
2023-05-10T16:50:52.346Z,20.51
2023-05-10T17:00:53.641Z,20.50
2023-05-10T17:10:54.875Z,20.55
2023-05-10T17:20:56.352Z,20.59
2023-05-10T17:30:57.625Z,20.60
2023-05-10T17:40:58.870Z,20.53
2023-05-10T17:51:00.112Z,20.53
2023-05-10T18:01:01.470Z,20.57
2023-05-10T18:11:02.794Z,20.53
2023-05-10T18:21:04.075Z,20.52
2023-05-10T18:31:05.426Z,20.50
2023-05-10T18:41:06.731Z,20.46
2023-05-10T18:51:08.022Z,20.43
2023-05-10T19:01:09.341Z,20.41
2023-05-10T19:11:10.673Z,20.33
2023-05-10T19:21:11.941Z,20.33
2023-05-10T19:31:13.242Z,20.31
2023-05-10T19:41:14.584Z,20.33
2023-05-10T19:51:15.895Z,20.53
2023-05-10T20:01:17.186Z,20.43
2023-05-10T20:11:18.466Z,20.44
2023-05-10T20:21:19.723Z,20.48
2023-05-10T20:31:20.998Z,20.28
2023-05-10T20:41:22.332Z,20.37
2023-05-10T20:51:23.588Z,20.31
2023-05-10T21:01:24.905Z,20.28
2023-05-10T21:11:26.187Z,20.31
2023-05-10T21:21:27.445Z,20.32
2023-05-10T21:31:28.752Z,20.29
2023-05-10T21:41:29.999Z,20.30
2023-05-10T21:51:31.248Z,20.27
2023-05-10T22:01:32.531Z,20.22
2023-05-10T22:11:33.799Z,20.30
2023-05-10T22:21:35.042Z,20.30
2023-05-10T22:31:38.389Z,20.23
2023-05-10T22:41:42.821Z,20.27
2023-05-10T22:51:44.065Z,20.25
2023-05-10T23:01:45.362Z,20.20
2023-05-10T23:11:46.697Z,20.17
2023-05-10T23:21:47.948Z,20.23
2023-05-10T23:31:49.252Z,20.27
2023-05-10T23:41:50.561Z,20.18
2023-05-10T23:51:51.817Z,20.21
